Time,TemperatureF,DewpointF,PressureIn,WindDirection,WindDirectionDegrees,WindSpeedMPH,WindSpeedGustMPH,Humidity,HourlyPrecipIn,Conditions,Clouds,dailyrainin,SoftwareType,DateUTC
2013-03-02 00:01:00,47.0,43.0,30.28,SSE,167,2.0,2.0,85,-99.99,,,-99.99,,2013-03-02 08:01:00,
2013-03-02 00:11:00,47.0,43.0,30.28,SSE,167,2.0,2.0,85,-99.99,,,-99.99,,2013-03-02 08:11:00,
2013-03-02 01:01:00,44.0,40.0,30.27,NW,309,2.0,5.0,85,-99.99,,,-99.99,,2013-03-02 09:01:00,
2013-03-02 01:11:00,44.0,40.0,30.27,NW,309,2.0,5.0,85,-99.99,,,-99.99,,2013-03-02 09:11:00,
2013-03-02 01:15:00,42.0,40.0,30.26,NNW,343,1.0,2.0,92,-99.99,,,-99.99,,2013-03-02 09:15:00,
2013-03-02 02:01:00,42.0,40.0,30.26,NNW,343,1.0,2.0,92,-99.99,,,-99.99,,2013-03-02 10:01:00,
2013-03-02 03:01:00,42.0,40.0,30.25,North,-999,0.0,0.0,92,-99.99,,,-99.99,,2013-03-02 11:01:00,
2013-03-02 03:11:00,42.0,40.0,30.25,North,-999,0.0,0.0,92,-99.99,,,-99.99,,2013-03-02 11:11:00,
2013-03-02 04:02:00,44.0,41.0,30.23,ESE,112,1.0,2.0,89,-99.99,,,-99.99,,2013-03-02 12:02:00,
2013-03-02 04:11:00,44.0,41.0,30.23,ESE,112,1.0,2.0,89,-99.99,,,-99.99,,2013-03-02 12:11:00,
2013-03-02 05:01:00,43.0,41.0,30.21,ENE,78,2.0,3.0,92,-99.99,,,-99.99,,2013-03-02 13:01:00,
2013-03-02 05:11:00,43.0,41.0,30.21,ENE,78,2.0,3.0,92,-99.99,,,-99.99,,2013-03-02 13:11:00,
2013-03-02 06:01:00,43.0,40.0,30.20,NE,54,3.0,3.0,89,-99.99,,,-99.99,,2013-03-02 14:01:00,
2013-03-02 06:11:00,43.0,40.0,30.20,NE,54,3.0,3.0,89,-99.99,,,-99.99,,2013-03-02 14:11:00,
2013-03-02 07:02:00,44.0,41.0,30.19,SSE,148,1.0,1.0,89,-99.99,,,-99.99,,2013-03-02 15:02:00,
2013-03-02 07:11:00,44.0,41.0,30.19,SSE,148,1.0,1.0,89,-99.99,,,-99.99,,2013-03-02 15:11:00,
2013-03-02 08:01:00,45.0,42.0,30.18,SSE,157,2.0,3.0,89,-99.99,,,-99.99,,2013-03-02 16:01:00,
2013-03-02 08:11:00,45.0,42.0,30.18,SSE,157,2.0,3.0,89,-99.99,,,-99.99,,2013-03-02 16:11:00,
2013-03-02 09:01:00,47.0,43.0,30.17,SSE,164,2.0,3.0,85,-99.99,,,-99.99,,2013-03-02 17:01:00,
2013-03-02 09:11:00,47.0,43.0,30.17,SSE,164,2.0,3.0,85,-99.99,,,-99.99,,2013-03-02 17:11:00,
2013-03-02 10:01:00,48.0,43.0,30.15,SW,219,2.0,3.0,82,-99.99,,,-99.99,,2013-03-02 18:01:00,
2013-03-02 10:11:00,48.0,43.0,30.15,SW,219,2.0,3.0,82,-99.99,,,-99.99,,2013-03-02 18:11:00,
2013-03-02 11:01:00,50.0,44.0,30.14,SSE,165,3.0,6.0,79,-99.99,,,-99.99,,2013-03-02 19:01:00,
2013-03-02 11:11:00,50.0,44.0,30.14,SSE,165,3.0,6.0,79,-99.99,,,-99.99,,2013-03-02 19:11:00,
2013-03-02 12:01:00,51.0,44.0,30.12,SSW,209,7.0,10.0,76,-99.99,,,-99.99,,2013-03-02 20:01:00,
2013-03-02 12:11:00,51.0,44.0,30.12,SSW,209,7.0,10.0,76,-99.99,,,-99.99,,2013-03-02 20:11:00,
2013-03-02 13:02:00,50.0,44.0,30.10,SSW,192,9.0,10.0,79,-99.99,,,-99.99,,2013-03-02 21:02:00,
2013-03-02 13:11:00,50.0,44.0,30.10,SSW,192,9.0,10.0,79,-99.99,,,-99.99,,2013-03-02 21:11:00,
2013-03-02 14:01:00,51.0,44.0,30.08,South,188,6.0,7.0,76,-99.99,,,-99.99,,2013-03-02 22:01:00,
2013-03-02 14:11:00,51.0,44.0,30.08,South,188,6.0,7.0,76,-99.99,,,-99.99,,2013-03-02 22:11:00,
2013-03-02 15:01:00,53.0,45.0,30.06,South,172,6.0,7.0,74,-99.99,,,-99.99,,2013-03-02 23:01:00,
2013-03-02 15:11:00,53.0,45.0,30.06,South,172,6.0,7.0,74,-99.99,,,-99.99,,2013-03-02 23:11:00,
2013-03-02 16:02:00,54.0,45.0,30.05,South,172,7.0,9.0,71,-99.99,,,-99.99,,2013-03-03 00:02:00,
2013-03-02 16:11:00,54.0,45.0,30.05,South,172,7.0,9.0,71,-99.99,,,-99.99,,2013-03-03 00:11:00,
2013-03-02 17:01:00,54.0,44.0,30.04,SSW,195,10.0,12.0,68,-99.99,,,-99.99,,2013-03-03 01:01:00,
2013-03-02 17:11:00,54.0,44.0,30.04,SSW,195,10.0,12.0,68,-99.99,,,-99.99,,2013-03-03 01:11:00,
2013-03-02 18:01:00,53.0,44.0,30.03,South,186,8.0,10.0,71,-99.99,,,-99.99,,2013-03-03 02:01:00,
2013-03-02 18:11:00,53.0,44.0,30.03,South,186,8.0,10.0,71,-99.99,,,-99.99,,2013-03-03 02:11:00,
2013-03-02 19:01:00,51.0,44.0,30.03,SSW,209,5.0,7.0,76,-99.99,,,-99.99,,2013-03-03 03:01:00,
2013-03-02 19:11:00,51.0,44.0,30.03,SSW,209,5.0,7.0,76,-99.99,,,-99.99,,2013-03-03 03:11:00,
2013-03-02 20:01:00,50.0,41.0,30.02,South,182,9.0,10.0,71,-99.99,,,-99.99,,2013-03-03 04:01:00,
2013-03-02 20:11:00,50.0,41.0,30.02,South,182,9.0,10.0,71,-99.99,,,-99.99,,2013-03-03 04:11:00,
2013-03-02 21:01:00,48.0,40.0,30.01,South,188,9.0,12.0,73,-99.99,,,-99.99,,2013-03-03 05:01:00,
2013-03-02 21:11:00,48.0,40.0,30.01,South,188,9.0,12.0,73,-99.99,,,-99.99,,2013-03-03 05:11:00,
2013-03-02 22:01:00,47.0,40.0,30.02,SSW,206,13.0,15.0,76,-99.99,,,-99.99,,2013-03-03 06:01:00,
2013-03-02 22:11:00,47.0,40.0,30.02,SSW,206,13.0,15.0,76,-99.99,,,-99.99,,2013-03-03 06:11:00,
2013-03-02 23:01:00,47.0,40.0,30.01,SSW,208,17.0,21.0,76,-99.99,,,-99.99,,2013-03-03 07:01:00,
2013-03-02 23:11:00,47.0,40.0,30.01,SSW,208,17.0,21.0,76,-99.99,,,-99.99,,2013-03-03 07:11:00,